KLBX

Texas Gulf Coast Regional Airport

Angleton/Lake Jackson, Texas, USA
METAR KLBX 180253Z AUTO 00000KT 10SM OVC030 16/13 A3010 RMK AO2 SLP192 T01610133 51015
Observed Flight Rules
Dec-18 @ 02:53 UTC (23 minutes ago) Marginal Visual Flight Rules
Wind Visibility Clouds
Calm 10 miles
  • Overcast at 3,000' AGL
Temperatures Readings
Current 16°C / 61°F
Dewpoint 13°C / 55°F
Humidity 83%
Altimeter 30.1" Hg
Pressure 1019.2 hPa
Elevation 6
METAR KLBX 180253Z AUTO 00000KT 10SM OVC030 16/13 A3010 RMK AO2 SLP192 T01610133 51015
Observed Flight Rules
Dec-18 @ 02:53 UTC
(23 minutes ago)
MVFR
Wind Visibility
Calm 10 miles
Clouds
  • Overcast at 3,000' AGL
Temperature Dewpoint
16°C / 61°F 13°C / 55°F
Humidity Altimeter Pressure
83% 30.1" Hg 1019.2 hPa